createdAt,value
2022-10-18T00:00:18.659Z,101929.19
2022-10-18T00:03:21.894Z,101925.75
2022-10-18T00:06:24.351Z,101924.84
2022-10-18T00:09:29.951Z,101926.62
2022-10-18T00:12:36.677Z,101936.06
2022-10-18T00:15:39.583Z,101923.97
2022-10-18T00:18:45.530Z,101915.41
2022-10-18T00:21:50.572Z,101917.13
2022-10-18T00:24:53.059Z,101920.66
2022-10-18T00:27:55.759Z,101914.63
2022-10-18T00:30:58.290Z,101914.66
2022-10-18T00:34:04.364Z,101913.91
2022-10-18T00:37:07.134Z,101914.00
2022-10-18T00:40:10.495Z,101907.09
2022-10-18T00:43:16.061Z,101906.25
2022-10-18T00:46:18.805Z,101908.03
2022-10-18T00:49:35.625Z,101907.25
2022-10-18T00:52:46.954Z,101901.22
2022-10-18T00:55:49.690Z,101908.97
2022-10-18T00:58:52.665Z,101896.09
2022-10-18T01:01:57.178Z,101887.50
2022-10-18T01:04:59.940Z,101895.25
2022-10-18T01:08:31.703Z,101898.75
2022-10-18T01:11:58.364Z,101888.41
2022-10-18T01:15:11.710Z,101885.88
2022-10-18T01:18:23.801Z,101881.63
2022-10-18T01:21:42.764Z,101878.19
2022-10-18T01:25:10.464Z,101877.31
2022-10-18T01:28:39.395Z,101873.03
2022-10-18T01:31:56.368Z,101870.44
2022-10-18T01:35:05.028Z,101868.69
2022-10-18T01:38:14.109Z,101865.25
2022-10-18T01:41:19.167Z,101861.88
2022-10-18T01:44:25.803Z,101861.94
2022-10-18T01:47:28.921Z,101856.75
2022-10-18T01:50:34.316Z,101854.19
2022-10-18T01:53:36.790Z,101850.75
2022-10-18T01:56:54.691Z,101850.72
2022-10-18T02:00:15.261Z,101849.00
2022-10-18T02:03:22.879Z,101849.81
2022-10-18T02:06:35.688Z,101842.97
2022-10-18T02:10:08.523Z,101845.62
2022-10-18T02:13:16.152Z,101835.28
2022-10-18T02:16:41.889Z,101835.38
2022-10-18T02:19:49.603Z,101837.09
2022-10-18T02:22:55.865Z,101839.72
2022-10-18T02:25:58.492Z,101837.13
2022-10-18T02:29:01.650Z,101837.19
2022-10-18T02:32:17.483Z,101846.69
2022-10-18T02:35:23.564Z,101838.06
2022-10-18T02:38:27.563Z,101832.94
2022-10-18T02:41:31.669Z,101834.63
2022-10-18T02:44:35.210Z,101840.69
2022-10-18T02:47:37.867Z,101843.22
2022-10-18T02:50:40.820Z,101845.00
2022-10-18T02:53:43.613Z,101839.87
2022-10-18T02:56:46.015Z,101840.69
2022-10-18T02:59:48.744Z,101839.03
2022-10-18T03:02:52.895Z,101842.53
2022-10-18T03:05:55.568Z,101839.09
2022-10-18T03:08:58.216Z,101833.97
2022-10-18T03:12:01.043Z,101847.75
2022-10-18T03:15:03.743Z,101850.34
2022-10-18T03:18:06.439Z,101851.22
2022-10-18T03:21:09.087Z,101858.09
2022-10-18T03:24:11.764Z,101857.25
2022-10-18T03:27:14.206Z,101859.84
2022-10-18T03:30:18.487Z,101862.34
2022-10-18T03:33:20.940Z,101856.34
2022-10-18T03:36:24.259Z,101859.72
2022-10-18T03:39:26.824Z,101854.63
2022-10-18T03:42:29.974Z,101858.16
2022-10-18T03:45:32.716Z,101853.91
2022-10-18T03:48:35.490Z,101851.38
2022-10-18T03:51:38.145Z,101851.44
2022-10-18T03:54:40.888Z,101850.59
2022-10-18T03:57:43.260Z,101852.31
2022-10-18T04:00:48.756Z,101850.53
2022-10-18T04:03:51.416Z,101849.72
2022-10-18T04:06:53.888Z,101852.34
2022-10-18T04:09:56.608Z,101845.47
2022-10-18T04:12:59.270Z,101844.59
2022-10-18T04:16:02.107Z,101848.94
2022-10-18T04:19:05.066Z,101843.78
2022-10-18T04:22:09.100Z,101849.00
2022-10-18T04:25:11.542Z,101844.69
2022-10-18T04:28:14.436Z,101844.66
2022-10-18T04:31:16.973Z,101830.91
2022-10-18T04:34:19.599Z,101836.94
2022-10-18T04:37:22.076Z,101836.94
2022-10-18T04:40:24.916Z,101842.97
2022-10-18T04:43:27.304Z,101833.50
2022-10-18T04:46:30.110Z,101839.59
2022-10-18T04:49:32.855Z,101837.91
2022-10-18T04:52:35.578Z,101830.16
2022-10-18T04:55:38.006Z,101822.41
2022-10-18T04:58:40.791Z,101817.19
2022-10-18T05:01:43.481Z,101811.19
2022-10-18T05:04:46.221Z,101814.59
2022-10-18T05:07:48.691Z,101818.97
2022-10-18T05:10:52.157Z,101827.56
2022-10-18T05:13:54.602Z,101824.81
2022-10-18T05:16:57.325Z,101828.09
2022-10-18T05:19:59.872Z,101832.44
2022-10-18T05:23:02.706Z,101823.91
2022-10-18T05:26:06.909Z,101825.75
2022-10-18T05:29:09.699Z,101817.19
2022-10-18T05:32:12.315Z,101825.75
2022-10-18T05:35:15.040Z,101825.78
2022-10-18T05:38:17.487Z,101827.56
2022-10-18T05:41:20.267Z,101823.28
2022-10-18T05:44:22.668Z,101829.31
2022-10-18T05:47:25.481Z,101832.69
2022-10-18T05:50:28.302Z,101833.50
2022-10-18T05:53:36.663Z,101823.94
2022-10-18T05:56:40.624Z,101824.72
2022-10-18T05:59:44.405Z,101834.09
2022-10-18T06:02:46.950Z,101840.88
2022-10-18T06:05:49.611Z,101838.22
2022-10-18T06:08:52.148Z,101833.84
2022-10-18T06:11:55.447Z,101836.34
2022-10-18T06:14:57.865Z,101835.28
2022-10-18T06:18:00.763Z,101832.59
2022-10-18T06:21:03.657Z,101835.84
2022-10-18T06:24:06.665Z,101836.69
2022-10-18T06:27:09.542Z,101845.19
2022-10-18T06:30:12.375Z,101849.41
2022-10-18T06:33:14.796Z,101853.56
2022-10-18T06:36:21.971Z,101860.25
2022-10-18T06:39:24.928Z,101856.53
2022-10-18T06:42:28.479Z,101858.16
2022-10-18T06:45:30.863Z,101853.44
2022-10-18T06:48:35.658Z,101852.16
2022-10-18T06:51:38.321Z,101853.59
2022-10-18T06:54:41.004Z,101851.69
2022-10-18T06:57:43.400Z,101853.19
2022-10-18T07:00:47.007Z,101856.16
2022-10-18T07:03:53.067Z,101855.84
2022-10-18T07:06:56.246Z,101860.91
2022-10-18T07:09:58.726Z,101857.25
2022-10-18T07:13:26.940Z,101861.50
2022-10-18T07:16:23.837Z,101860.34
2022-10-18T07:19:26.608Z,101849.72
2022-10-18T07:22:30.394Z,101844.34
2022-10-18T07:25:33.234Z,101847.25
2022-10-18T07:28:35.827Z,101843.22
2022-10-18T07:31:39.136Z,101842.66
2022-10-18T07:34:41.536Z,101839.63
2022-10-18T07:37:44.348Z,101839.41
2022-10-18T07:40:46.730Z,101839.63
2022-10-18T07:43:51.716Z,101832.00
2022-10-18T07:46:54.152Z,101827.19
2022-10-18T07:49:56.823Z,101829.91
2022-10-18T07:52:59.557Z,101825.19
2022-10-18T07:56:09.644Z,101827.25
2022-10-18T07:59:12.300Z,101820.59
2022-10-18T08:02:15.043Z,101819.16
2022-10-18T08:05:17.841Z,101819.69
2022-10-18T08:08:22.080Z,101805.19
2022-10-18T08:11:25.987Z,101807.38
2022-10-18T08:14:28.430Z,101803.19
2022-10-18T08:17:31.557Z,101797.66
2022-10-18T08:20:36.204Z,101796.19
2022-10-18T08:23:39.551Z,101798.22
2022-10-18T08:26:41.937Z,101799.22
2022-10-18T08:29:44.624Z,101787.59
2022-10-18T08:32:46.943Z,101786.44
2022-10-18T08:36:00.368Z,101777.38
2022-10-18T08:39:03.275Z,101774.00
2022-10-18T08:42:47.422Z,101758.75
2022-10-18T08:45:53.226Z,101766.56
2022-10-18T08:48:56.976Z,101759.84
2022-10-18T08:51:59.482Z,101756.97
2022-10-18T08:55:10.188Z,101753.09
2022-10-18T08:58:26.849Z,101751.91
2022-10-18T09:05:43.099Z,101740.53
2022-10-18T09:09:08.839Z,101735.03
2022-10-18T09:12:39.006Z,101726.03
2022-10-18T09:16:01.951Z,101728.81
2022-10-18T09:19:25.765Z,101726.16
2022-10-18T09:22:49.903Z,101722.22
2022-10-18T09:26:20.029Z,101717.66
2022-10-18T09:29:53.940Z,101715.03
2022-10-18T09:33:24.261Z,101717.91
2022-10-18T09:36:35.456Z,101707.72
2022-10-18T09:39:39.502Z,101702.53
2022-10-18T09:42:53.245Z,101701.75
2022-10-18T09:45:56.832Z,101701.44
2022-10-18T09:49:23.359Z,101688.28
2022-10-18T09:52:34.645Z,101687.22
2022-10-18T09:55:58.622Z,101685.50
2022-10-18T09:59:01.179Z,101687.50
2022-10-18T10:02:05.127Z,101681.00
2022-10-18T10:05:13.085Z,101678.63
2022-10-18T10:08:15.607Z,101667.34
2022-10-18T10:11:37.968Z,101663.87
2022-10-18T10:14:44.318Z,101653.72
2022-10-18T10:18:01.334Z,101651.09
2022-10-18T10:21:07.355Z,101653.53
2022-10-18T10:24:27.414Z,101648.47
2022-10-18T10:27:34.983Z,101640.22
2022-10-18T10:30:38.752Z,101631.41
2022-10-18T10:33:46.897Z,101633.44
2022-10-18T10:36:54.758Z,101624.22
2022-10-18T10:40:22.116Z,101620.56
2022-10-18T10:43:37.708Z,101613.16
2022-10-18T10:46:41.536Z,101606.19
2022-10-18T10:49:47.566Z,101603.84
2022-10-18T10:52:50.251Z,101599.56
2022-10-18T10:55:54.859Z,101595.69
2022-10-18T10:59:07.676Z,101597.44
2022-10-18T11:02:20.655Z,101593.72
2022-10-18T11:05:29.439Z,101588.47
2022-10-18T11:08:38.931Z,101580.84
2022-10-18T11:11:49.919Z,101581.63
2022-10-18T11:15:32.628Z,101578.34
2022-10-18T11:18:37.855Z,101575.06
2022-10-18T11:21:41.645Z,101563.75
2022-10-18T11:24:44.288Z,101560.69
2022-10-18T11:28:12.750Z,101559.25
2022-10-18T11:31:30.228Z,101547.50
2022-10-18T11:34:58.565Z,101545.72
2022-10-18T11:38:10.135Z,101544.78
2022-10-18T11:41:31.358Z,101542.50
2022-10-18T11:44:58.267Z,101530.59
2022-10-18T11:48:25.716Z,101529.16
2022-10-18T11:51:33.989Z,101526.25
2022-10-18T11:54:47.420Z,101518.09
2022-10-18T11:58:12.243Z,101508.50
2022-10-18T12:01:37.871Z,101506.72
2022-10-18T12:04:59.812Z,101506.59
2022-10-18T12:08:32.883Z,101492.47
2022-10-18T12:11:55.841Z,101493.41
2022-10-18T12:15:19.740Z,101484.66
2022-10-18T12:18:26.224Z,101480.59
2022-10-18T12:21:32.636Z,101474.03
2022-10-18T12:24:36.005Z,101463.81
2022-10-18T12:27:53.366Z,101461.84
2022-10-18T12:31:26.735Z,101460.37
2022-10-18T12:34:43.489Z,101452.62
2022-10-18T12:38:30.798Z,101454.25
2022-10-18T12:41:35.734Z,101440.09
2022-10-18T12:44:38.589Z,101438.25
2022-10-18T12:47:41.210Z,101433.44
2022-10-18T12:50:45.309Z,101425.62
2022-10-18T12:53:54.745Z,101423.84
2022-10-18T12:56:59.739Z,101420.03
2022-10-18T13:00:03.854Z,101413.00
2022-10-18T13:03:10.135Z,101406.03
2022-10-18T13:06:12.583Z,101406.19
2022-10-18T13:09:21.177Z,101397.56
2022-10-18T13:12:23.565Z,101391.03
2022-10-18T13:15:45.017Z,101391.22
2022-10-18T13:18:52.466Z,101387.97
2022-10-18T13:22:19.441Z,101389.34
2022-10-18T13:25:29.373Z,101385.09
2022-10-18T13:28:52.364Z,101387.31
2022-10-18T13:32:03.824Z,101383.97
2022-10-18T13:35:44.732Z,101379.63
2022-10-18T13:38:50.393Z,101378.88
2022-10-18T13:41:57.733Z,101380.47
2022-10-18T13:45:31.553Z,101382.13
2022-10-18T13:48:34.143Z,101381.00
2022-10-18T13:51:48.740Z,101375.13
2022-10-18T13:54:57.652Z,101379.34
2022-10-18T13:58:11.291Z,101371.75
2022-10-18T14:01:26.172Z,101366.28
2022-10-18T14:05:23.873Z,101365.37
2022-10-18T14:08:49.169Z,101361.28
2022-10-18T14:11:55.287Z,101358.59
2022-10-18T14:15:25.837Z,101351.87
2022-10-18T14:18:33.352Z,101351.25
2022-10-18T14:21:41.554Z,101342.34
2022-10-18T14:24:48.509Z,101346.28
2022-10-18T14:28:08.876Z,101339.22
2022-10-18T14:31:16.158Z,101345.03
2022-10-18T14:34:18.964Z,101336.69
2022-10-18T14:37:35.572Z,101329.91
2022-10-18T14:40:40.514Z,101331.91
2022-10-18T14:43:44.463Z,101325.94
2022-10-18T14:46:59.203Z,101318.06
2022-10-18T14:50:02.214Z,101320.09
2022-10-18T14:53:13.784Z,101310.38
2022-10-18T14:56:26.540Z,101310.03
2022-10-18T14:59:43.695Z,101303.41
2022-10-18T15:02:46.544Z,101299.50
2022-10-18T15:05:53.915Z,101296.44
2022-10-18T15:08:58.936Z,101295.22
2022-10-18T15:12:05.547Z,101291.97
2022-10-18T15:15:19.552Z,101293.09
2022-10-18T15:18:25.266Z,101291.69
2022-10-18T15:21:28.780Z,101280.38
2022-10-18T15:24:41.403Z,101279.06
2022-10-18T15:27:47.758Z,101280.72
2022-10-18T15:30:50.399Z,101288.13
2022-10-18T15:34:07.651Z,101279.25
2022-10-18T15:37:27.095Z,101275.66
2022-10-18T15:40:35.046Z,101279.75
2022-10-18T15:43:37.627Z,101273.47
2022-10-18T15:46:40.360Z,101273.91
2022-10-18T15:49:46.283Z,101274.34
2022-10-18T15:52:49.083Z,101272.75
2022-10-18T15:55:57.689Z,101274.72
2022-10-18T15:59:04.100Z,101276.63
2022-10-18T16:02:14.196Z,101272.41
2022-10-18T16:05:17.006Z,101269.50
2022-10-18T16:08:25.297Z,101262.66
2022-10-18T16:11:28.602Z,101264.25
2022-10-18T16:14:32.018Z,101266.69
2022-10-18T16:17:35.244Z,101267.41
2022-10-18T16:20:37.997Z,101265.47
2022-10-18T16:23:40.702Z,101272.03
2022-10-18T16:26:43.227Z,101273.56
2022-10-18T16:29:46.471Z,101279.25
2022-10-18T16:32:49.097Z,101275.25
2022-10-18T16:35:52.841Z,101281.16
2022-10-18T16:38:56.624Z,101282.53
2022-10-18T16:41:59.372Z,101294.37
2022-10-18T16:45:01.959Z,101284.34
2022-10-18T16:48:05.197Z,101288.13
2022-10-18T16:51:12.500Z,101289.50
2022-10-18T16:54:15.266Z,101288.06
2022-10-18T16:57:17.796Z,101291.25
2022-10-18T17:00:23.044Z,101291.50
2022-10-18T17:03:26.234Z,101288.25
2022-10-18T17:06:32.356Z,101287.69
2022-10-18T17:09:36.892Z,101288.94
2022-10-18T17:12:39.983Z,101284.94
2022-10-18T17:15:42.550Z,101290.53
2022-10-18T17:18:45.302Z,101295.94
2022-10-18T17:21:47.992Z,101302.09
2022-10-18T17:24:50.749Z,101296.31
2022-10-18T17:27:53.143Z,101297.59
2022-10-18T17:30:59.110Z,101293.59
2022-10-18T17:34:02.268Z,101289.47
2022-10-18T17:37:06.130Z,101292.31
2022-10-18T17:40:09.341Z,101287.25
2022-10-18T17:43:13.674Z,101277.06
2022-10-18T17:46:17.909Z,101275.50
2022-10-18T17:49:22.080Z,101261.84
2022-10-18T17:52:24.511Z,101275.09
2022-10-18T17:55:27.737Z,101273.75
2022-10-18T17:58:30.920Z,101280.00
2022-10-18T18:01:33.919Z,101272.28
2022-10-18T18:04:36.622Z,101268.09
2022-10-18T18:07:39.022Z,101274.16
2022-10-18T18:10:41.905Z,101273.44
2022-10-18T18:13:44.540Z,101274.41
2022-10-18T18:16:48.213Z,101283.34
2022-10-18T18:19:50.610Z,101275.81
2022-10-18T18:22:53.511Z,101271.66
2022-10-18T18:25:59.088Z,101268.28
2022-10-18T18:32:07.956Z,101252.78
2022-10-18T18:35:10.620Z,101267.66
2022-10-18T18:38:13.141Z,101279.84
2022-10-18T18:41:18.900Z,101275.28
2022-10-18T18:44:22.051Z,101271.97
2022-10-18T18:47:24.758Z,101261.81
2022-10-18T18:50:28.221Z,101252.56
2022-10-18T18:53:31.750Z,101247.56
2022-10-18T18:56:34.474Z,101254.66
2022-10-18T18:59:37.225Z,101243.72
2022-10-18T19:02:40.278Z,101242.03
2022-10-18T19:05:42.993Z,101242.97
2022-10-18T19:08:46.607Z,101241.38
2022-10-18T19:11:52.490Z,101253.78
2022-10-18T19:14:54.881Z,101252.34
2022-10-18T19:17:57.710Z,101255.00
2022-10-18T19:21:00.087Z,101244.78
2022-10-18T19:24:04.003Z,101246.69
2022-10-18T19:27:09.741Z,101236.34
2022-10-18T19:30:13.073Z,101237.34
2022-10-18T19:33:23.788Z,101237.50
2022-10-18T19:36:34.370Z,101226.34
2022-10-18T19:39:37.384Z,101233.25
2022-10-18T19:42:40.046Z,101228.75
2022-10-18T19:45:42.404Z,101234.75
2022-10-18T19:48:45.155Z,101243.16
2022-10-18T19:51:47.968Z,101245.03
2022-10-18T19:54:50.758Z,101242.78
2022-10-18T19:57:53.241Z,101244.84
2022-10-18T20:00:58.000Z,101247.59
2022-10-18T20:04:01.035Z,101240.87
2022-10-18T20:07:03.585Z,101230.53
2022-10-18T20:10:07.155Z,101224.63
2022-10-18T20:13:09.792Z,101224.81
2022-10-18T20:16:14.614Z,101218.25
2022-10-18T20:19:17.114Z,101221.84
2022-10-18T20:22:19.846Z,101210.66
2022-10-18T20:25:22.270Z,101210.69
2022-10-18T20:28:26.009Z,101210.91
2022-10-18T20:31:30.482Z,101214.38
2022-10-18T20:34:33.200Z,101218.94
2022-10-18T20:37:35.961Z,101219.06
2022-10-18T20:40:39.205Z,101214.91
2022-10-18T20:43:42.315Z,101211.59
2022-10-18T20:46:45.645Z,101214.19
2022-10-18T20:49:48.989Z,101214.28
2022-10-18T20:52:51.645Z,101203.22
2022-10-18T20:56:06.378Z,101215.25
2022-10-18T20:59:10.225Z,101198.84
2022-10-18T21:02:13.359Z,101200.53
2022-10-18T21:05:16.595Z,101201.50
2022-10-18T21:08:19.055Z,101196.31
2022-10-18T21:11:22.588Z,101190.25
2022-10-18T21:14:25.116Z,101192.87
2022-10-18T21:17:27.866Z,101196.37
2022-10-18T21:20:30.996Z,101187.84
2022-10-18T21:23:34.144Z,101193.19
2022-10-18T21:26:37.140Z,101192.28
2022-10-18T21:29:39.768Z,101201.88
2022-10-18T21:32:42.240Z,101194.25
2022-10-18T21:35:45.072Z,101192.63
2022-10-18T21:38:48.067Z,101185.56
2022-10-18T21:41:50.896Z,101181.31
2022-10-18T21:44:53.406Z,101175.94
2022-10-18T21:47:56.070Z,101168.09
2022-10-18T21:51:03.369Z,101165.50
2022-10-18T21:54:08.441Z,101150.72
2022-10-18T21:57:10.821Z,101150.69
2022-10-18T22:00:15.360Z,101142.06
2022-10-18T22:03:18.059Z,101140.28
2022-10-18T22:06:21.122Z,101149.78
2022-10-18T22:09:23.819Z,101139.41
2022-10-18T22:12:26.235Z,101141.22
2022-10-18T22:15:29.002Z,101139.47
2022-10-18T22:18:33.182Z,101140.34
2022-10-18T22:21:36.033Z,101135.91
2022-10-18T22:24:38.423Z,101128.03
2022-10-18T22:27:41.215Z,101132.31
2022-10-18T22:30:43.938Z,101135.66
2022-10-18T22:33:47.311Z,101130.28
2022-10-18T22:36:49.953Z,101132.06
2022-10-18T22:39:52.724Z,101126.62
2022-10-18T22:42:55.125Z,101130.84
2022-10-18T22:46:01.512Z,101135.09
2022-10-18T22:49:04.316Z,101127.19
2022-10-18T22:52:07.051Z,101131.44
2022-10-18T22:55:09.694Z,101133.13
2022-10-18T22:58:12.658Z,101128.03
2022-10-18T23:01:18.181Z,101136.62
2022-10-18T23:04:20.869Z,101139.06
2022-10-18T23:07:23.319Z,101125.19
2022-10-18T23:10:30.608Z,101129.63
2022-10-18T23:13:36.117Z,101118.44
2022-10-18T23:16:41.455Z,101116.03
2022-10-18T23:19:44.091Z,101107.59
2022-10-18T23:22:47.010Z,101111.84
2022-10-18T23:25:53.998Z,101115.28
2022-10-18T23:28:57.369Z,101109.25
2022-10-18T23:31:59.824Z,101107.44
2022-10-18T23:35:02.598Z,101110.22
2022-10-18T23:38:05.023Z,101107.75
2022-10-18T23:41:11.696Z,101107.87
2022-10-18T23:44:14.695Z,101111.22
2022-10-18T23:47:20.123Z,101101.97
2022-10-18T23:50:25.384Z,101101.13
2022-10-18T23:53:28.578Z,101099.50
2022-10-18T23:56:30.952Z,101098.88
2022-10-18T23:59:33.673Z,101096.38
